Time;durP1;ratioP1;P1;durP2;ratioP2;P2;SDS_P1;SDS_P2;PMS_P1;PMS_P2;Temp;Humidity;BMP_temperature;BMP_pressure;BME280_temperature;BME280_humidity;BME280_pressure;Samples;Min_cycle;Max_cycle;Signal;HPM_P1;HPM_P2
2022/05/15 00:00:37;;;;;;;19.87;14.03;;;;;;;;;;4952961;28;20580;-43
2022/05/15 00:00:42;;;;;;;20.60;14.83;;;;;;;;;;4954345;28;20194;-44
2022/05/15 00:03:16;;;;;;;20.30;14.77;;;;;;;;;;4953948;28;20190;-43
2022/05/15 00:05:42;;;;;;;18.33;14.80;;;;;;;;;;4955329;28;20288;-43
2022/05/15 00:08:09;;;;;;;21.00;13.87;;;;;;;;;;4957143;28;20229;-44
2022/05/15 00:10:36;;;;;;;17.83;14.03;;;;;;;;;;4958053;28;20214;-43
2022/05/15 00:13:02;;;;;;;20.97;15.70;;;;;;;;;;4954277;28;20186;-43
2022/05/15 00:15:30;;;;;;;21.23;16.33;;;;;;;;;;4957222;28;20634;-43
2022/05/15 00:17:56;;;;;;;19.97;14.93;;;;;;;;;;4959422;28;20586;-44
2022/05/15 00:20:22;;;;;;;20.87;15.20;;;;;;;;;;4955819;28;20298;-44
2022/05/15 00:22:49;;;;;;;22.23;16.87;;;;;;;;;;4961548;28;20181;-44
2022/05/15 00:25:15;;;;;;;20.33;16.33;;;;;;;;;;4956073;28;20242;-44
2022/05/15 00:27:41;;;;;;;23.60;16.30;;;;;;;;;;4952945;28;20870;-43
2022/05/15 00:30:07;;;;;;;24.07;16.87;;;;;;;;;;4952918;28;20229;-42
2022/05/15 00:32:34;;;;;;;25.27;19.17;;;;;;;;;;4957663;28;20605;-44
2022/05/15 00:35:00;;;;;;;28.50;20.23;;;;;;;;;;4959117;28;20178;-44
2022/05/15 00:37:26;;;;;;;25.77;21.53;;;;;;;;;;4965821;28;20620;-44
2022/05/15 00:39:52;;;;;;;30.50;21.77;;;;;;;;;;4962245;28;20193;-43
2022/05/15 00:42:18;;;;;;;28.57;21.67;;;;;;;;;;4962967;28;20721;-44
2022/05/15 00:44:44;;;;;;;25.60;21.30;;;;;;;;;;4963922;28;22201;-43
2022/05/15 00:47:10;;;;;;;24.57;20.23;;;;;;;;;;4962774;28;20190;-44
2022/05/15 00:49:37;;;;;;;22.33;19.00;;;;;;;;;;4962117;28;20185;-44
2022/05/15 00:52:05;;;;;;;27.00;20.30;;;;;;;;;;4961556;28;20209;-44
2022/05/15 00:54:34;;;;;;;21.73;19.23;;;;;;;;;;4963764;28;20186;-44
2022/05/15 00:57:08;;;;;;;26.93;20.37;;;;;;;;;;4959227;28;20762;-44
2022/05/15 00:59:38;;;;;;;27.30;20.73;;;;;;;;;;4961230;28;20178;-43
2022/05/15 01:02:04;;;;;;;29.77;22.80;;;;;;;;;;4962790;28;20287;-44
2022/05/15 01:04:31;;;;;;;28.60;21.07;;;;;;;;;;4958124;28;20344;-43
2022/05/15 01:07:00;;;;;;;30.77;24.00;;;;;;;;;;4953412;28;20194;-43
2022/05/15 01:09:26;;;;;;;32.73;23.30;;;;;;;;;;4957634;28;20181;-44
2022/05/15 01:11:52;;;;;;;25.87;22.00;;;;;;;;;;4956348;28;20217;-44
2022/05/15 01:14:19;;;;;;;29.53;24.00;;;;;;;;;;4954350;28;20812;-44
2022/05/15 01:16:45;;;;;;;31.10;24.10;;;;;;;;;;4963471;28;20277;-44
2022/05/15 01:19:11;;;;;;;31.87;25.20;;;;;;;;;;4962340;28;20792;-43
2022/05/15 01:21:40;;;;;;;43.17;33.03;;;;;;;;;;4961911;28;20189;-44
2022/05/15 01:24:07;;;;;;;38.30;30.83;;;;;;;;;;4957042;28;20182;-44
2022/05/15 01:26:35;;;;;;;32.30;24.73;;;;;;;;;;4961211;28;20186;-42
2022/05/15 01:29:02;;;;;;;31.17;24.87;;;;;;;;;;4961369;28;20893;-43
2022/05/15 01:31:28;;;;;;;30.80;23.87;;;;;;;;;;4956844;28;20407;-44
2022/05/15 01:33:54;;;;;;;31.43;24.70;;;;;;;;;;4960495;28;20233;-43
2022/05/15 01:36:22;;;;;;;28.00;22.33;;;;;;;;;;4963200;28;20289;-43
2022/05/15 01:38:48;;;;;;;31.50;22.73;;;;;;;;;;4960122;28;21067;-43
2022/05/15 01:41:14;;;;;;;29.97;22.37;;;;;;;;;;4960455;28;20178;-42
2022/05/15 01:43:41;;;;;;;25.83;22.00;;;;;;;;;;4958247;28;20304;-44
2022/05/15 01:46:07;;;;;;;32.13;24.43;;;;;;;;;;4963462;28;20181;-42
2022/05/15 01:48:34;;;;;;;32.23;23.07;;;;;;;;;;4960150;28;22894;-44
2022/05/15 01:51:00;;;;;;;30.83;24.63;;;;;;;;;;4959685;28;20438;-44
2022/05/15 01:53:26;;;;;;;30.73;23.93;;;;;;;;;;4961591;28;20645;-44
2022/05/15 01:55:52;;;;;;;34.20;22.53;;;;;;;;;;4963384;28;20612;-43
2022/05/15 01:58:18;;;;;;;28.63;22.00;;;;;;;;;;4959131;28;21016;-43
2022/05/15 02:00:45;;;;;;;29.70;23.60;;;;;;;;;;4958642;28;20190;-44
2022/05/15 02:03:11;;;;;;;28.17;22.83;;;;;;;;;;4963937;28;20701;-43
2022/05/15 02:05:37;;;;;;;29.90;23.00;;;;;;;;;;4960896;28;20270;-43
2022/05/15 02:08:04;;;;;;;31.80;23.23;;;;;;;;;;4959819;28;20637;-44
2022/05/15 02:10:30;;;;;;;29.80;23.43;;;;;;;;;;4960568;28;20203;-44
2022/05/15 02:12:56;;;;;;;30.80;22.43;;;;;;;;;;4959760;28;20182;-44
2022/05/15 02:15:22;;;;;;;32.10;23.67;;;;;;;;;;4954300;28;20178;-44
2022/05/15 02:17:48;;;;;;;29.27;23.90;;;;;;;;;;4960859;28;20219;-43
2022/05/15 02:20:15;;;;;;;32.47;23.63;;;;;;;;;;4962168;28;20232;-44
2022/05/15 02:22:41;;;;;;;31.73;23.77;;;;;;;;;;4959414;28;20178;-44
2022/05/15 02:25:09;;;;;;;33.60;25.17;;;;;;;;;;4958674;28;20180;-42
2022/05/15 02:27:35;;;;;;;29.73;24.27;;;;;;;;;;4961765;28;20532;-44
2022/05/15 02:30:02;;;;;;;28.83;23.27;;;;;;;;;;4964004;28;20605;-44
2022/05/15 02:32:28;;;;;;;29.67;23.87;;;;;;;;;;4960614;28;20178;-44
2022/05/15 02:34:54;;;;;;;30.70;24.40;;;;;;;;;;4962404;28;20224;-44
2022/05/15 02:37:20;;;;;;;27.93;23.33;;;;;;;;;;4963601;28;20612;-44
2022/05/15 02:39:46;;;;;;;33.00;25.20;;;;;;;;;;4961220;28;20967;-44
2022/05/15 02:42:12;;;;;;;28.87;23.00;;;;;;;;;;4956817;28;20193;-43
2022/05/15 02:44:38;;;;;;;26.77;21.87;;;;;;;;;;4959143;28;20307;-44
2022/05/15 02:47:04;;;;;;;31.13;24.00;;;;;;;;;;4956591;28;20526;-43
2022/05/15 02:52:15;;;;;;;30.33;24.00;;;;;;;;;;4953396;28;20197;-43
2022/05/15 02:54:43;;;;;;;28.33;21.37;;;;;;;;;;4955363;28;20776;-44
2022/05/15 02:57:11;;;;;;;26.73;21.33;;;;;;;;;;4956916;28;20296;-44
2022/05/15 02:59:37;;;;;;;33.17;23.13;;;;;;;;;;4960272;28;20178;-44
2022/05/15 03:02:03;;;;;;;29.37;22.33;;;;;;;;;;4960889;28;20614;-44
2022/05/15 03:04:31;;;;;;;33.73;23.53;;;;;;;;;;4957758;28;20414;-44
2022/05/15 03:06:57;;;;;;;25.57;20.97;;;;;;;;;;4957335;28;20466;-44
2022/05/15 03:09:23;;;;;;;27.93;20.83;;;;;;;;;;4957771;28;20386;-44
2022/05/15 03:11:49;;;;;;;30.03;23.03;;;;;;;;;;4958370;28;20529;-44
2022/05/15 03:14:16;;;;;;;30.30;22.20;;;;;;;;;;4959321;28;20598;-43
2022/05/15 03:16:42;;;;;;;29.07;21.67;;;;;;;;;;4962193;28;21181;-43
2022/05/15 03:19:08;;;;;;;28.63;22.47;;;;;;;;;;4957327;28;20253;-41
2022/05/15 03:21:34;;;;;;;26.17;20.67;;;;;;;;;;4958532;28;20178;-42
2022/05/15 03:24:05;;;;;;;27.63;21.50;;;;;;;;;;4961684;28;20174;-43
2022/05/15 03:26:31;;;;;;;27.73;21.80;;;;;;;;;;4963614;28;20230;-43
2022/05/15 03:28:58;;;;;;;28.70;21.00;;;;;;;;;;4956914;28;20697;-43
2022/05/15 03:31:24;;;;;;;29.50;22.90;;;;;;;;;;4959034;28;20210;-43
2022/05/15 03:33:50;;;;;;;27.60;21.63;;;;;;;;;;4960475;28;20175;-43
2022/05/15 03:36:16;;;;;;;28.80;23.20;;;;;;;;;;4961578;28;20174;-43
2022/05/15 03:38:43;;;;;;;31.20;23.00;;;;;;;;;;4957430;28;20166;-43
2022/05/15 03:41:10;;;;;;;29.57;21.53;;;;;;;;;;4953958;28;20520;-43
2022/05/15 03:43:36;;;;;;;27.03;21.93;;;;;;;;;;4959322;28;20473;-43
2022/05/15 03:46:03;;;;;;;29.73;22.33;;;;;;;;;;4958198;28;20730;-43
2022/05/15 03:48:29;;;;;;;26.00;21.00;;;;;;;;;;4959303;28;20886;-43
2022/05/15 03:50:55;;;;;;;31.53;23.67;;;;;;;;;;4954509;28;20205;-43
2022/05/15 03:53:23;;;;;;;30.27;23.20;;;;;;;;;;4960371;28;20170;-43
2022/05/15 03:55:50;;;;;;;32.73;24.33;;;;;;;;;;4952935;28;20178;-43
2022/05/15 03:58:17;;;;;;;34.13;22.70;;;;;;;;;;4956935;28;20718;-42
2022/05/15 04:00:43;;;;;;;33.33;21.00;;;;;;;;;;4953240;28;20779;-43
2022/05/15 04:03:10;;;;;;;24.13;19.70;;;;;;;;;;4959292;28;20174;-43
2022/05/15 04:05:36;;;;;;;26.20;20.83;;;;;;;;;;4959502;28;20196;-43
2022/05/15 04:08:02;;;;;;;26.40;20.87;;;;;;;;;;4956784;28;20180;-42
2022/05/15 04:10:30;;;;;;;26.83;21.50;;;;;;;;;;4955384;28;21353;-42
2022/05/15 04:12:56;;;;;;;26.13;21.13;;;;;;;;;;4956932;28;20205;-43
2022/05/15 04:15:22;;;;;;;26.60;20.87;;;;;;;;;;4952651;28;20631;-43
2022/05/15 04:17:52;;;;;;;28.67;21.77;;;;;;;;;;4957491;28;20976;-43
2022/05/15 04:20:23;;;;;;;30.77;23.10;;;;;;;;;;4958105;28;20475;-42
2022/05/15 04:22:49;;;;;;;27.13;20.50;;;;;;;;;;4961669;28;20188;-41
2022/05/15 04:25:15;;;;;;;28.40;20.80;;;;;;;;;;4957007;28;21024;-43
2022/05/15 04:27:42;;;;;;;29.23;22.70;;;;;;;;;;4954698;28;20583;-43
2022/05/15 04:30:10;;;;;;;27.60;21.40;;;;;;;;;;4954145;28;20205;-43
2022/05/15 04:32:36;;;;;;;28.77;21.40;;;;;;;;;;4957736;28;20718;-44
2022/05/15 04:35:02;;;;;;;28.30;22.07;;;;;;;;;;4958298;28;20201;-43
2022/05/15 04:37:28;;;;;;;33.33;23.80;;;;;;;;;;4953640;28;20176;-43
2022/05/15 04:39:54;;;;;;;33.17;25.77;;;;;;;;;;4954230;28;20178;-44
2022/05/15 04:42:20;;;;;;;33.27;25.87;;;;;;;;;;4958498;28;20497;-44
2022/05/15 04:44:48;;;;;;;35.20;25.90;;;;;;;;;;4958746;28;20506;-44
2022/05/15 04:47:14;;;;;;;35.80;25.80;;;;;;;;;;4953677;28;20175;-44
2022/05/15 04:49:40;;;;;;;27.60;23.90;;;;;;;;;;4959220;28;20223;-44
2022/05/15 04:52:06;;;;;;;29.70;24.53;;;;;;;;;;4956888;28;21010;-44
2022/05/15 04:54:32;;;;;;;32.03;24.37;;;;;;;;;;4956874;28;20627;-44
2022/05/15 04:56:58;;;;;;;33.37;26.00;;;;;;;;;;4956262;28;20634;-43
2022/05/15 04:59:25;;;;;;;37.30;27.27;;;;;;;;;;4958067;28;20392;-44
2022/05/15 05:01:51;;;;;;;33.90;26.03;;;;;;;;;;4956127;28;20177;-44
2022/05/15 05:04:17;;;;;;;35.30;26.30;;;;;;;;;;4959935;28;20241;-44
2022/05/15 05:06:43;;;;;;;36.93;26.67;;;;;;;;;;4955688;28;20174;-44
2022/05/15 05:09:11;;;;;;;34.23;24.97;;;;;;;;;;4954304;28;20284;-44
2022/05/15 05:11:37;;;;;;;34.10;25.97;;;;;;;;;;4959670;28;20210;-44
2022/05/15 05:14:03;;;;;;;33.23;24.83;;;;;;;;;;4951388;28;20678;-44
2022/05/15 05:16:31;;;;;;;30.93;24.20;;;;;;;;;;4957706;28;20355;-43
2022/05/15 05:18:57;;;;;;;35.13;25.53;;;;;;;;;;4957983;28;20941;-44
2022/05/15 05:21:23;;;;;;;28.90;23.40;;;;;;;;;;4962870;28;20189;-44
2022/05/15 05:23:49;;;;;;;31.20;22.87;;;;;;;;;;4959657;28;20748;-44
2022/05/15 05:26:15;;;;;;;26.13;20.90;;;;;;;;;;4957032;28;20689;-44
2022/05/15 05:28:41;;;;;;;27.40;22.50;;;;;;;;;;4961735;28;20216;-43
2022/05/15 05:31:08;;;;;;;27.27;21.03;;;;;;;;;;4961179;28;20496;-44
2022/05/15 05:33:34;;;;;;;25.90;19.07;;;;;;;;;;4964428;28;20875;-44
2022/05/15 05:36:00;;;;;;;23.87;16.90;;;;;;;;;;4961195;28;20289;-43
2022/05/15 05:38:26;;;;;;;24.00;17.43;;;;;;;;;;4940171;28;20189;-42
2022/05/15 05:40:52;;;;;;;24.40;16.00;;;;;;;;;;4960906;28;20238;-44
2022/05/15 05:43:18;;;;;;;22.33;15.70;;;;;;;;;;4957126;28;20196;-43
2022/05/15 05:45:45;;;;;;;25.80;14.30;;;;;;;;;;4961555;28;20552;-44
2022/05/15 05:48:11;;;;;;;22.93;15.37;;;;;;;;;;4959147;28;20178;-43
2022/05/15 05:50:37;;;;;;;18.67;14.83;;;;;;;;;;4963274;28;20201;-44
2022/05/15 05:53:04;;;;;;;18.63;13.73;;;;;;;;;;4957564;28;20533;-44
2022/05/15 05:55:30;;;;;;;18.07;13.97;;;;;;;;;;4956690;28;20490;-44
2022/05/15 05:57:56;;;;;;;18.83;13.63;;;;;;;;;;4958770;28;20174;-44
2022/05/15 06:00:24;;;;;;;17.83;13.70;;;;;;;;;;4958684;28;20362;-44
2022/05/15 06:02:51;;;;;;;19.60;14.00;;;;;;;;;;4961145;28;20481;-43
2022/05/15 06:05:17;;;;;;;25.13;13.23;;;;;;;;;;4966556;28;20186;-44
2022/05/15 06:07:43;;;;;;;17.40;12.50;;;;;;;;;;4961861;28;20579;-44
2022/05/15 06:10:11;;;;;;;18.77;12.13;;;;;;;;;;4958156;28;20562;-44
2022/05/15 06:12:40;;;;;;;18.10;12.60;;;;;;;;;;4965575;28;20643;-45
2022/05/15 06:15:07;;;;;;;18.17;13.10;;;;;;;;;;4957508;28;20182;-43
2022/05/15 06:17:33;;;;;;;19.37;12.23;;;;;;;;;;4954829;28;20441;-43
2022/05/15 06:19:59;;;;;;;17.67;12.87;;;;;;;;;;4957694;28;20492;-43
2022/05/15 06:22:25;;;;;;;19.57;12.57;;;;;;;;;;4962796;28;20170;-41
2022/05/15 06:24:51;;;;;;;16.63;12.33;;;;;;;;;;4959590;28;20281;-42
2022/05/15 06:27:17;;;;;;;19.80;12.70;;;;;;;;;;4964231;28;20327;-43
2022/05/15 06:29:43;;;;;;;17.73;12.83;;;;;;;;;;4962980;28;20683;-42
2022/05/15 06:32:10;;;;;;;19.37;12.47;;;;;;;;;;4960253;28;20237;-43
2022/05/15 06:34:36;;;;;;;18.17;13.17;;;;;;;;;;4962253;28;20663;-43
2022/05/15 06:37:02;;;;;;;19.80;13.53;;;;;;;;;;4963222;28;20186;-43
2022/05/15 06:39:28;;;;;;;17.87;13.43;;;;;;;;;;4959071;28;20178;-42
2022/05/15 06:41:59;;;;;;;20.60;12.57;;;;;;;;;;4959803;28;20417;-41
2022/05/15 06:44:25;;;;;;;19.87;13.67;;;;;;;;;;4964634;28;20285;-43
2022/05/15 06:46:51;;;;;;;18.67;13.70;;;;;;;;;;4961530;28;20178;-43
2022/05/15 06:49:17;;;;;;;21.50;12.67;;;;;;;;;;4959018;28;20339;-43
2022/05/15 06:51:43;;;;;;;17.43;13.93;;;;;;;;;;4961420;28;20703;-42
2022/05/15 06:54:09;;;;;;;18.63;14.40;;;;;;;;;;4959522;28;20588;-44
2022/05/15 06:59:21;;;;;;;19.10;14.60;;;;;;;;;;4960626;28;20323;-44
2022/05/15 07:01:47;;;;;;;21.07;14.00;;;;;;;;;;4959897;28;20197;-44
2022/05/15 07:04:13;;;;;;;14.93;12.70;;;;;;;;;;4960923;28;20882;-44
2022/05/15 07:06:40;;;;;;;23.27;13.03;;;;;;;;;;4934380;28;20833;-44
2022/05/15 07:09:06;;;;;;;16.73;12.70;;;;;;;;;;4962118;28;20182;-44
2022/05/15 07:11:32;;;;;;;19.33;14.07;;;;;;;;;;4962687;28;20285;-44
2022/05/15 07:13:59;;;;;;;17.93;13.00;;;;;;;;;;4935118;28;20227;-43
2022/05/15 07:16:25;;;;;;;18.40;13.03;;;;;;;;;;4958739;28;20610;-44
2022/05/15 07:18:51;;;;;;;17.33;13.03;;;;;;;;;;4961464;28;20190;-43
2022/05/15 07:21:18;;;;;;;20.87;13.90;;;;;;;;;;4956166;28;20182;-42
2022/05/15 07:23:44;;;;;;;19.77;13.57;;;;;;;;;;4957686;28;20733;-43
2022/05/15 07:26:11;;;;;;;19.53;13.13;;;;;;;;;;4957408;28;20658;-44
2022/05/15 07:28:37;;;;;;;17.80;13.37;;;;;;;;;;4956839;28;20190;-44
2022/05/15 07:31:03;;;;;;;19.77;12.67;;;;;;;;;;4955678;28;20201;-44
2022/05/15 07:33:29;;;;;;;18.93;12.30;;;;;;;;;;4957298;28;20705;-44
2022/05/15 07:35:55;;;;;;;18.63;13.73;;;;;;;;;;4960693;28;20583;-45
2022/05/15 07:38:22;;;;;;;17.57;14.03;;;;;;;;;;4959513;28;21089;-44
2022/05/15 07:40:48;;;;;;;16.53;12.87;;;;;;;;;;4955180;28;20200;-44
2022/05/15 07:43:15;;;;;;;22.50;13.50;;;;;;;;;;4953595;28;20204;-44
2022/05/15 07:45:41;;;;;;;16.77;12.90;;;;;;;;;;4960514;28;20181;-44
2022/05/15 07:48:08;;;;;;;16.67;11.70;;;;;;;;;;4961858;28;20181;-44
2022/05/15 07:50:34;;;;;;;16.30;12.67;;;;;;;;;;4938277;28;20278;-44
2022/05/15 07:53:01;;;;;;;22.10;13.13;;;;;;;;;;4960934;28;20413;-44
2022/05/15 07:55:28;;;;;;;15.20;11.27;;;;;;;;;;4944610;28;20170;-44
2022/05/15 07:57:54;;;;;;;16.83;12.97;;;;;;;;;;4957156;28;20182;-44
2022/05/15 08:00:20;;;;;;;21.70;13.23;;;;;;;;;;4954532;28;20202;-44
2022/05/15 08:02:46;;;;;;;16.63;12.00;;;;;;;;;;4959790;28;20635;-44
2022/05/15 08:08:02;;;;;;;16.97;11.17;;;;;;;;;;4958093;28;20204;-44
2022/05/15 08:10:37;;;;;;;21.37;12.03;;;;;;;;;;4959126;28;20285;-45
2022/05/15 08:13:03;;;;;;;14.83;11.57;;;;;;;;;;4959404;28;20526;-44
2022/05/15 08:15:30;;;;;;;19.53;11.60;;;;;;;;;;4956388;28;20179;-43
2022/05/15 08:23:33;;;;;;;15.27;11.63;;;;;;;;;;4957725;28;20449;-45
2022/05/15 08:23:34;;;;;;;18.27;11.50;;;;;;;;;;4953922;28;20627;-44
2022/05/15 08:26:00;;;;;;;16.87;11.53;;;;;;;;;;4937632;28;20186;-44
2022/05/15 08:28:27;;;;;;;13.77;10.47;;;;;;;;;;4959541;28;20175;-44
2022/05/15 08:30:54;;;;;;;16.57;10.47;;;;;;;;;;4954670;28;20489;-45
2022/05/15 08:33:20;;;;;;;15.27;11.17;;;;;;;;;;4956612;28;20871;-45
2022/05/15 08:35:46;;;;;;;14.23;10.73;;;;;;;;;;4959488;28;20747;-44
2022/05/15 08:38:12;;;;;;;15.60;10.50;;;;;;;;;;4957742;28;20508;-45
2022/05/15 08:40:54;;;;;;;14.67;10.13;;;;;;;;;;4958910;28;20182;-44
2022/05/15 08:43:22;;;;;;;13.47;10.50;;;;;;;;;;4962359;28;20196;-45
2022/05/15 08:46:00;;;;;;;12.40;9.77;;;;;;;;;;4960509;28;20616;-45
2022/05/15 08:48:26;;;;;;;13.23;9.07;;;;;;;;;;4958256;28;20258;-44
2022/05/15 08:50:53;;;;;;;16.00;9.70;;;;;;;;;;4957034;28;21084;-45
2022/05/15 08:53:25;;;;;;;13.77;8.10;;;;;;;;;;4961428;28;20248;-45
2022/05/15 08:55:54;;;;;;;15.27;8.60;;;;;;;;;;4961814;28;20184;-44
2022/05/15 08:58:21;;;;;;;12.77;8.63;;;;;;;;;;4962412;28;21040;-44
2022/05/15 09:00:52;;;;;;;15.00;8.27;;;;;;;;;;4961507;28;20691;-44
2022/05/15 09:03:22;;;;;;;11.47;7.50;;;;;;;;;;4963394;28;20702;-44
2022/05/15 09:06:01;;;;;;;14.63;9.37;;;;;;;;;;4962238;28;20264;-44
2022/05/15 09:08:30;;;;;;;12.67;8.70;;;;;;;;;;4962398;28;20303;-44
2022/05/15 09:11:05;;;;;;;18.73;9.00;;;;;;;;;;4957368;28;20768;-43
2022/05/15 09:13:38;;;;;;;11.40;8.43;;;;;;;;;;4959276;28;20178;-44
2022/05/15 09:16:08;;;;;;;11.47;8.60;;;;;;;;;;4958694;28;20217;-44
2022/05/15 09:18:37;;;;;;;13.03;8.97;;;;;;;;;;4957871;28;20472;-45
2022/05/15 09:21:03;;;;;;;10.53;8.23;;;;;;;;;;4960493;28;20189;-44
2022/05/15 09:23:34;;;;;;;12.77;8.80;;;;;;;;;;4961919;28;20189;-44
2022/05/15 09:26:01;;;;;;;13.30;9.90;;;;;;;;;;4963428;28;20825;-44
2022/05/15 09:28:28;;;;;;;9.90;8.10;;;;;;;;;;4961276;28;20544;-45
2022/05/15 09:30:56;;;;;;;12.63;8.67;;;;;;;;;;4966764;28;20650;-44
2022/05/15 09:33:34;;;;;;;18.47;9.07;;;;;;;;;;4958193;28;20182;-44
2022/05/15 09:36:19;;;;;;;13.10;8.90;;;;;;;;;;4959119;28;20187;-44
2022/05/15 09:38:45;;;;;;;12.13;8.23;;;;;;;;;;4958295;28;20178;-42
2022/05/15 09:44:33;;;;;;;14.50;9.20;;;;;;;;;;4957876;28;20621;-43
2022/05/15 09:47:02;;;;;;;13.73;8.03;;;;;;;;;;4959890;28;20189;-43
2022/05/15 09:49:32;;;;;;;13.77;8.33;;;;;;;;;;4962124;28;20198;-44
2022/05/15 09:51:59;;;;;;;12.83;7.30;;;;;;;;;;4958047;28;20206;-44
2022/05/15 09:54:43;;;;;;;13.20;7.63;;;;;;;;;;4956796;28;20266;-44
2022/05/15 09:57:11;;;;;;;13.93;7.77;;;;;;;;;;4957968;28;20903;-44
2022/05/15 09:59:37;;;;;;;12.93;8.03;;;;;;;;;;4954102;28;20606;-44
2022/05/15 10:02:03;;;;;;;12.70;8.57;;;;;;;;;;4957262;28;20189;-43
2022/05/15 10:04:30;;;;;;;14.47;9.17;;;;;;;;;;4962442;28;20370;-43
2022/05/15 10:06:56;;;;;;;10.03;7.50;;;;;;;;;;4961555;28;20358;-44
2022/05/15 10:09:24;;;;;;;11.80;8.03;;;;;;;;;;4958389;28;20189;-53
2022/05/15 10:11:53;;;;;;;11.57;8.10;;;;;;;;;;4958343;28;20564;-44
2022/05/15 10:14:29;;;;;;;12.03;7.60;;;;;;;;;;4953789;28;20749;-44
2022/05/15 10:16:56;;;;;;;11.57;7.57;;;;;;;;;;4959310;28;20181;-44
2022/05/15 10:19:25;;;;;;;13.07;8.07;;;;;;;;;;4960372;28;20733;-44
2022/05/15 10:21:56;;;;;;;12.50;7.57;;;;;;;;;;4956432;28;20480;-44
2022/05/15 10:24:26;;;;;;;12.30;7.20;;;;;;;;;;4959592;28;20625;-44
2022/05/15 10:26:57;;;;;;;14.23;7.93;;;;;;;;;;4961145;28;20431;-44
2022/05/15 10:29:44;;;;;;;11.87;7.43;;;;;;;;;;4958356;28;20611;-44
2022/05/15 10:32:39;;;;;;;11.43;6.97;;;;;;;;;;4945499;28;21061;-44
2022/05/15 10:35:06;;;;;;;12.70;6.90;;;;;;;;;;4952184;28;20204;-42
2022/05/15 10:37:43;;;;;;;11.17;6.80;;;;;;;;;;4959241;28;20287;-44
2022/05/15 10:40:35;;;;;;;12.90;6.97;;;;;;;;;;4958489;28;20445;-44
2022/05/15 10:43:08;;;;;;;12.37;6.47;;;;;;;;;;4951091;28;20243;-44
2022/05/15 10:45:57;;;;;;;14.10;6.47;;;;;;;;;;4958173;28;20191;-44
2022/05/15 10:48:41;;;;;;;12.27;6.17;;;;;;;;;;4962679;28;20598;-43
2022/05/15 10:51:07;;;;;;;11.33;6.23;;;;;;;;;;4958898;28;20206;-43
2022/05/15 10:59:37;;;;;;;13.43;6.57;;;;;;;;;;4924142;28;20186;-44
2022/05/15 11:02:03;;;;;;;14.97;6.30;;;;;;;;;;4962184;28;20182;-44
2022/05/15 11:04:41;;;;;;;10.23;5.60;;;;;;;;;;4964634;28;20297;-44
2022/05/15 11:07:16;;;;;;;10.80;6.20;;;;;;;;;;4964450;28;21033;-44
2022/05/15 11:10:11;;;;;;;11.30;6.43;;;;;;;;;;4963485;28;20272;-44
2022/05/15 11:12:42;;;;;;;10.17;5.93;;;;;;;;;;4877204;28;20201;-43
2022/05/15 11:15:14;;;;;;;9.40;5.40;;;;;;;;;;4956913;28;20290;-43
2022/05/15 11:17:59;;;;;;;10.63;6.60;;;;;;;;;;4962764;28;20186;-44
2022/05/15 11:20:30;;;;;;;11.20;6.53;;;;;;;;;;4957169;28;20189;-43
2022/05/15 11:23:11;;;;;;;10.90;5.93;;;;;;;;;;4958115;28;21083;-43
2022/05/15 11:25:51;;;;;;;10.63;5.83;;;;;;;;;;4961129;28;20189;-44
2022/05/15 11:28:25;;;;;;;8.60;5.97;;;;;;;;;;4963312;28;20178;-43
2022/05/15 11:30:58;;;;;;;12.77;6.33;;;;;;;;;;4962906;28;20225;-41
2022/05/15 11:33:32;;;;;;;7.47;5.57;;;;;;;;;;4958953;28;20178;-43
2022/05/15 11:36:07;;;;;;;11.00;6.30;;;;;;;;;;4963933;28;20186;-43
2022/05/15 11:38:47;;;;;;;11.27;6.50;;;;;;;;;;4968588;28;20175;-43
2022/05/15 11:41:40;;;;;;;12.77;6.03;;;;;;;;;;4960981;28;20181;-43
2022/05/15 11:44:32;;;;;;;12.53;7.00;;;;;;;;;;4959239;28;20371;-43
2022/05/15 11:46:59;;;;;;;11.37;6.80;;;;;;;;;;4964098;28;20212;-44
2022/05/15 11:49:32;;;;;;;10.23;6.27;;;;;;;;;;4962351;28;21036;-44
2022/05/15 11:52:08;;;;;;;12.10;5.83;;;;;;;;;;4960323;28;20195;-44
2022/05/15 11:54:34;;;;;;;9.50;5.83;;;;;;;;;;4959407;28;20991;-44
2022/05/15 11:57:00;;;;;;;12.07;5.70;;;;;;;;;;4961301;28;20997;-44
2022/05/15 11:59:28;;;;;;;12.17;5.97;;;;;;;;;;4959965;28;20276;-44
2022/05/15 12:01:54;;;;;;;8.87;5.30;;;;;;;;;;4958161;28;21062;-45
2022/05/15 12:04:26;;;;;;;9.67;5.47;;;;;;;;;;4965256;28;20468;-45
2022/05/15 12:06:59;;;;;;;9.63;5.07;;;;;;;;;;4963116;28;20214;-44
2022/05/15 12:09:50;;;;;;;11.10;5.20;;;;;;;;;;4959398;28;20436;-44
2022/05/15 12:12:23;;;;;;;7.83;4.67;;;;;;;;;;4963756;28;20689;-44
2022/05/15 12:15:08;;;;;;;7.43;5.40;;;;;;;;;;4961697;28;20174;-44
2022/05/15 12:17:38;;;;;;;8.60;4.87;;;;;;;;;;4959549;28;20252;-42
2022/05/15 12:20:11;;;;;;;6.63;4.90;;;;;;;;;;4960176;28;21110;-42
2022/05/15 12:22:39;;;;;;;9.50;5.27;;;;;;;;;;4965744;28;20232;-44
2022/05/15 12:25:09;;;;;;;6.27;5.07;;;;;;;;;;4959438;28;20178;-44
2022/05/15 12:27:42;;;;;;;7.43;5.03;;;;;;;;;;4937745;28;20185;-44
2022/05/15 12:30:14;;;;;;;9.37;5.00;;;;;;;;;;4965586;28;20174;-44
2022/05/15 12:32:50;;;;;;;7.17;4.60;;;;;;;;;;4966480;28;20270;-43
2022/05/15 12:35:32;;;;;;;8.53;5.50;;;;;;;;;;4963289;28;20247;-44
2022/05/15 12:38:04;;;;;;;9.77;5.37;;;;;;;;;;4961205;28;20184;-43
2022/05/15 12:40:33;;;;;;;7.10;5.67;;;;;;;;;;4965632;28;20197;-44
2022/05/15 12:42:59;;;;;;;7.43;4.70;;;;;;;;;;4965789;28;20224;-43
2022/05/15 12:45:26;;;;;;;5.90;5.00;;;;;;;;;;4963315;28;20205;-44
2022/05/15 12:48:02;;;;;;;8.07;5.10;;;;;;;;;;4964294;28;21162;-44
2022/05/15 12:50:28;;;;;;;5.87;4.73;;;;;;;;;;4968427;28;20301;-44
2022/05/15 12:52:59;;;;;;;7.77;4.97;;;;;;;;;;4964357;28;21033;-42
2022/05/15 12:55:25;;;;;;;9.43;5.27;;;;;;;;;;4962052;28;20280;-43
2022/05/15 12:57:52;;;;;;;8.63;4.80;;;;;;;;;;4967761;28;20271;-44
2022/05/15 13:00:21;;;;;;;8.17;4.97;;;;;;;;;;4947202;28;20177;-44
2022/05/15 13:02:48;;;;;;;9.37;5.33;;;;;;;;;;4963503;28;20305;-44
2022/05/15 13:05:24;;;;;;;6.60;4.73;;;;;;;;;;4964719;28;20171;-44
2022/05/15 13:07:55;;;;;;;7.53;5.20;;;;;;;;;;4966296;28;20190;-44
2022/05/15 13:10:22;;;;;;;6.20;4.60;;;;;;;;;;4965353;28;21056;-44
2022/05/15 13:12:50;;;;;;;6.10;5.03;;;;;;;;;;4961837;28;20918;-43
2022/05/15 13:15:18;;;;;;;7.73;4.57;;;;;;;;;;4964427;28;20746;-44
2022/05/15 13:17:45;;;;;;;5.93;4.50;;;;;;;;;;4966691;28;20187;-44
2022/05/15 13:20:13;;;;;;;4.93;4.40;;;;;;;;;;4961858;28;20189;-44
2022/05/15 13:22:40;;;;;;;9.87;5.13;;;;;;;;;;4956791;28;20242;-44
2022/05/15 13:25:11;;;;;;;5.90;4.50;;;;;;;;;;4953946;28;20187;-45
2022/05/15 13:27:41;;;;;;;7.90;4.27;;;;;;;;;;4958789;28;20437;-44
2022/05/15 13:30:08;;;;;;;7.27;4.93;;;;;;;;;;4956327;28;20213;-44
2022/05/15 13:32:34;;;;;;;7.53;4.33;;;;;;;;;;4936171;28;20273;-43
2022/05/15 13:35:01;;;;;;;5.30;4.33;;;;;;;;;;4963473;28;20264;-44
2022/05/15 13:37:34;;;;;;;5.30;3.80;;;;;;;;;;4961913;28;20817;-41
2022/05/15 13:43:20;;;;;;;10.40;4.67;;;;;;;;;;4961046;28;20210;-43
2022/05/15 13:45:53;;;;;;;8.53;4.30;;;;;;;;;;4959715;28;20180;-43
2022/05/15 13:48:20;;;;;;;8.00;4.50;;;;;;;;;;4957288;28;21042;-42
2022/05/15 13:50:48;;;;;;;6.43;4.20;;;;;;;;;;4960063;28;20202;-43
2022/05/15 13:53:20;;;;;;;7.40;4.40;;;;;;;;;;4960659;28;20633;-43
2022/05/15 13:55:48;;;;;;;8.40;4.10;;;;;;;;;;4958753;28;20186;-43
2022/05/15 13:58:14;;;;;;;9.80;4.60;;;;;;;;;;4965341;28;20187;-43
2022/05/15 14:00:40;;;;;;;6.03;4.03;;;;;;;;;;4962205;28;20192;-42
2022/05/15 14:03:10;;;;;;;7.07;4.33;;;;;;;;;;4956677;28;20722;-42
2022/05/15 14:05:38;;;;;;;9.07;4.73;;;;;;;;;;4961843;28;20200;-43
2022/05/15 14:08:08;;;;;;;7.30;4.27;;;;;;;;;;4962727;28;20185;-43
2022/05/15 14:10:35;;;;;;;5.60;4.20;;;;;;;;;;4958981;28;20191;-43
2022/05/15 14:13:02;;;;;;;5.83;4.33;;;;;;;;;;4959156;28;20978;-42
2022/05/15 14:15:34;;;;;;;8.60;4.70;;;;;;;;;;4961416;28;20180;-42
2022/05/15 14:18:11;;;;;;;7.73;4.87;;;;;;;;;;4959872;28;20180;-42
2022/05/15 14:20:42;;;;;;;8.93;4.30;;;;;;;;;;4960258;28;20189;-42
2022/05/15 14:23:09;;;;;;;5.60;4.23;;;;;;;;;;4961964;28;20183;-42
2022/05/15 14:25:36;;;;;;;4.50;4.10;;;;;;;;;;4961164;28;20185;-42
2022/05/15 14:28:03;;;;;;;7.33;4.80;;;;;;;;;;4961765;28;20181;-42
2022/05/15 14:30:29;;;;;;;4.37;3.97;;;;;;;;;;4963452;28;20717;-43
2022/05/15 14:32:57;;;;;;;6.57;4.67;;;;;;;;;;4960386;28;20749;-42
2022/05/15 14:35:26;;;;;;;7.73;4.77;;;;;;;;;;4959872;28;20185;-42
2022/05/15 14:37:53;;;;;;;6.30;4.20;;;;;;;;;;4959835;28;20176;-42
2022/05/15 14:40:19;;;;;;;7.80;4.67;;;;;;;;;;4958117;28;20193;-42
2022/05/15 14:42:45;;;;;;;5.83;4.67;;;;;;;;;;4959136;28;20196;-43
2022/05/15 14:45:17;;;;;;;5.97;4.63;;;;;;;;;;4960189;28;20190;-43
2022/05/15 14:47:44;;;;;;;7.87;4.70;;;;;;;;;;4963597;28;20846;-42
2022/05/15 14:50:10;;;;;;;6.10;4.30;;;;;;;;;;4958764;28;20568;-42
2022/05/15 14:52:38;;;;;;;8.57;4.90;;;;;;;;;;4959041;28;20236;-42
2022/05/15 14:55:05;;;;;;;7.80;4.53;;;;;;;;;;4961531;28;20196;-43